sensor_id;sensor_type;location;lat;lon;timestamp;P1;durP1;ratioP1;P2;durP2;ratioP2
31336;SDS011;22846;42.654;23.314;2022-08-11T00:01:14;5.93;;;4.38;;
31336;SDS011;22846;42.654;23.314;2022-08-11T00:03:45;4.38;;;3.97;;
31336;SDS011;22846;42.654;23.314;2022-08-11T00:06:12;4.78;;;4.28;;
31336;SDS011;22846;42.654;23.314;2022-08-11T00:08:40;5.75;;;4.35;;
31336;SDS011;22846;42.654;23.314;2022-08-11T00:11:08;4.25;;;3.85;;
31336;SDS011;22846;42.654;23.314;2022-08-11T00:13:40;8.07;;;4.50;;
31336;SDS011;22846;42.654;23.314;2022-08-11T00:18:38;6.07;;;4.25;;
31336;SDS011;22846;42.654;23.314;2022-08-11T00:21:06;5.47;;;4.30;;
31336;SDS011;22846;42.654;23.314;2022-08-11T00:23:32;7.60;;;4.30;;
31336;SDS011;22846;42.654;23.314;2022-08-11T00:26:04;5.93;;;4.15;;
31336;SDS011;22846;42.654;23.314;2022-08-11T00:28:32;5.07;;;4.15;;
31336;SDS011;22846;42.654;23.314;2022-08-11T00:31:00;4.60;;;4.20;;
31336;SDS011;22846;42.654;23.314;2022-08-11T00:33:32;6.00;;;4.40;;
31336;SDS011;22846;42.654;23.314;2022-08-11T00:36:04;4.78;;;3.95;;
31336;SDS011;22846;42.654;23.314;2022-08-11T00:38:31;5.88;;;4.38;;
31336;SDS011;22846;42.654;23.314;2022-08-11T00:41:14;6.68;;;4.53;;
31336;SDS011;22846;42.654;23.314;2022-08-11T00:43:46;6.07;;;4.43;;
31336;SDS011;22846;42.654;23.314;2022-08-11T00:49:06;8.93;;;4.90;;
31336;SDS011;22846;42.654;23.314;2022-08-11T01:45:15;5.57;;;4.75;;
31336;SDS011;22846;42.654;23.314;2022-08-11T01:50:29;5.93;;;4.57;;
31336;SDS011;22846;42.654;23.314;2022-08-11T01:58:47;6.27;;;5.33;;
31336;SDS011;22846;42.654;23.314;2022-08-11T02:01:51;5.38;;;4.68;;
31336;SDS011;22846;42.654;23.314;2022-08-11T02:04:55;5.65;;;4.90;;
31336;SDS011;22846;42.654;23.314;2022-08-11T02:07:30;5.60;;;4.83;;
31336;SDS011;22846;42.654;23.314;2022-08-11T02:15:55;5.43;;;4.80;;
31336;SDS011;22846;42.654;23.314;2022-08-11T02:18:33;6.80;;;4.95;;
31336;SDS011;22846;42.654;23.314;2022-08-11T02:21:28;7.72;;;4.93;;
31336;SDS011;22846;42.654;23.314;2022-08-11T02:24:23;5.78;;;4.75;;
31336;SDS011;22846;42.654;23.314;2022-08-11T02:27:07;5.40;;;4.78;;
31336;SDS011;22846;42.654;23.314;2022-08-11T02:30:16;5.60;;;4.80;;
31336;SDS011;22846;42.654;23.314;2022-08-11T02:32:45;5.90;;;4.78;;
31336;SDS011;22846;42.654;23.314;2022-08-11T02:35:45;6.28;;;4.93;;
31336;SDS011;22846;42.654;23.314;2022-08-11T02:38:26;5.47;;;4.97;;
31336;SDS011;22846;42.654;23.314;2022-08-11T02:41:12;6.25;;;5.10;;
31336;SDS011;22846;42.654;23.314;2022-08-11T02:47:08;5.35;;;4.70;;
31336;SDS011;22846;42.654;23.314;2022-08-11T02:49:47;5.10;;;4.60;;
31336;SDS011;22846;42.654;23.314;2022-08-11T02:58:21;5.90;;;4.90;;
31336;SDS011;22846;42.654;23.314;2022-08-11T03:00:51;6.40;;;5.20;;
31336;SDS011;22846;42.654;23.314;2022-08-11T03:03:36;7.88;;;5.15;;
31336;SDS011;22846;42.654;23.314;2022-08-11T03:14:48;6.60;;;5.18;;
31336;SDS011;22846;42.654;23.314;2022-08-11T03:22:55;6.43;;;4.97;;
31336;SDS011;22846;42.654;23.314;2022-08-11T03:28:26;7.90;;;5.28;;
31336;SDS011;22846;42.654;23.314;2022-08-11T03:40:06;7.85;;;4.82;;
31336;SDS011;22846;42.654;23.314;2022-08-11T03:43:02;6.88;;;4.88;;
31336;SDS011;22846;42.654;23.314;2022-08-11T03:51:38;6.60;;;5.18;;
31336;SDS011;22846;42.654;23.314;2022-08-11T03:54:22;8.13;;;5.18;;
31336;SDS011;22846;42.654;23.314;2022-08-11T04:57:36;8.25;;;5.63;;
31336;SDS011;22846;42.654;23.314;2022-08-11T05:00:31;8.15;;;5.50;;
31336;SDS011;22846;42.654;23.314;2022-08-11T05:12:52;10.30;;;6.03;;
31336;SDS011;22846;42.654;23.314;2022-08-11T05:15:45;15.88;;;6.57;;
31336;SDS011;22846;42.654;23.314;2022-08-11T05:18:50;9.40;;;5.70;;
31336;SDS011;22846;42.654;23.314;2022-08-11T05:21:37;7.70;;;5.22;;
31336;SDS011;22846;42.654;23.314;2022-08-11T05:24:29;11.35;;;5.70;;
31336;SDS011;22846;42.654;23.314;2022-08-11T05:27:14;11.25;;;6.57;;
31336;SDS011;22846;42.654;23.314;2022-08-11T05:30:06;11.13;;;5.95;;
31336;SDS011;22846;42.654;23.314;2022-08-11T05:33:01;12.40;;;5.78;;
31336;SDS011;22846;42.654;23.314;2022-08-11T05:35:49;12.18;;;6.07;;
31336;SDS011;22846;42.654;23.314;2022-08-11T05:38:25;13.60;;;5.60;;
31336;SDS011;22846;42.654;23.314;2022-08-11T05:41:12;10.95;;;6.13;;
31336;SDS011;22846;42.654;23.314;2022-08-11T05:43:58;7.93;;;5.72;;
31336;SDS011;22846;42.654;23.314;2022-08-11T05:46:43;10.10;;;5.40;;
31336;SDS011;22846;42.654;23.314;2022-08-11T05:49:31;12.18;;;5.47;;
31336;SDS011;22846;42.654;23.314;2022-08-11T05:52:17;9.35;;;5.03;;
31336;SDS011;22846;42.654;23.314;2022-08-11T05:55:05;9.38;;;5.28;;
31336;SDS011;22846;42.654;23.314;2022-08-11T05:57:58;11.98;;;5.55;;
31336;SDS011;22846;42.654;23.314;2022-08-11T06:00:27;9.93;;;5.68;;
31336;SDS011;22846;42.654;23.314;2022-08-11T06:02:54;8.55;;;5.05;;
31336;SDS011;22846;42.654;23.314;2022-08-11T06:05:34;8.52;;;5.00;;
31336;SDS011;22846;42.654;23.314;2022-08-11T06:08:06;6.90;;;5.03;;
31336;SDS011;22846;42.654;23.314;2022-08-11T06:10:34;7.55;;;4.85;;
31336;SDS011;22846;42.654;23.314;2022-08-11T06:13:02;8.90;;;5.28;;
31336;SDS011;22846;42.654;23.314;2022-08-11T06:15:30;16.58;;;5.68;;
31336;SDS011;22846;42.654;23.314;2022-08-11T06:17:58;13.38;;;6.22;;
31336;SDS011;22846;42.654;23.314;2022-08-11T06:20:27;13.35;;;6.22;;
31336;SDS011;22846;42.654;23.314;2022-08-11T06:23:04;124.38;;;83.50;;
31336;SDS011;22846;42.654;23.314;2022-08-11T06:25:32;112.03;;;86.43;;
31336;SDS011;22846;42.654;23.314;2022-08-11T06:28:00;40.58;;;25.83;;
31336;SDS011;22846;42.654;23.314;2022-08-11T06:30:40;33.40;;;24.00;;
31336;SDS011;22846;42.654;23.314;2022-08-11T06:33:09;23.40;;;16.95;;
31336;SDS011;22846;42.654;23.314;2022-08-11T06:35:43;18.83;;;10.02;;
31336;SDS011;22846;42.654;23.314;2022-08-11T06:38:39;18.17;;;11.98;;
31336;SDS011;22846;42.654;23.314;2022-08-11T06:41:22;21.83;;;14.15;;
31336;SDS011;22846;42.654;23.314;2022-08-11T06:46:38;19.17;;;12.60;;
31336;SDS011;22846;42.654;23.314;2022-08-11T06:49:06;16.55;;;12.52;;
31336;SDS011;22846;42.654;23.314;2022-08-11T06:51:57;23.92;;;13.10;;
31336;SDS011;22846;42.654;23.314;2022-08-11T06:54:26;16.50;;;11.35;;
31336;SDS011;22846;42.654;23.314;2022-08-11T06:56:55;22.63;;;11.93;;
31336;SDS011;22846;42.654;23.314;2022-08-11T06:59:40;19.80;;;12.18;;
31336;SDS011;22846;42.654;23.314;2022-08-11T07:02:27;18.77;;;12.20;;
31336;SDS011;22846;42.654;23.314;2022-08-11T07:05:02;17.38;;;11.40;;
31336;SDS011;22846;42.654;23.314;2022-08-11T07:13:42;14.77;;;10.55;;
31336;SDS011;22846;42.654;23.314;2022-08-11T07:23:13;17.92;;;10.82;;
31336;SDS011;22846;42.654;23.314;2022-08-11T07:26:00;15.85;;;10.45;;
31336;SDS011;22846;42.654;23.314;2022-08-11T07:28:46;13.13;;;10.15;;
31336;SDS011;22846;42.654;23.314;2022-08-11T07:31:20;15.13;;;10.05;;
31336;SDS011;22846;42.654;23.314;2022-08-11T07:33:49;13.25;;;10.00;;
31336;SDS011;22846;42.654;23.314;2022-08-11T07:36:17;14.48;;;10.10;;
31336;SDS011;22846;42.654;23.314;2022-08-11T07:38:47;13.18;;;10.15;;
31336;SDS011;22846;42.654;23.314;2022-08-11T07:41:19;14.82;;;9.95;;
31336;SDS011;22846;42.654;23.314;2022-08-11T07:43:47;13.30;;;9.38;;
31336;SDS011;22846;42.654;23.314;2022-08-11T07:46:15;13.13;;;9.77;;
31336;SDS011;22846;42.654;23.314;2022-08-11T07:49:01;13.88;;;9.52;;
31336;SDS011;22846;42.654;23.314;2022-08-11T07:51:46;12.73;;;9.32;;
31336;SDS011;22846;42.654;23.314;2022-08-11T07:54:31;11.48;;;9.18;;
31336;SDS011;22846;42.654;23.314;2022-08-11T07:56:59;13.85;;;8.85;;
31336;SDS011;22846;42.654;23.314;2022-08-11T07:59:45;10.43;;;8.68;;
31336;SDS011;22846;42.654;23.314;2022-08-11T08:02:29;13.73;;;8.80;;
31336;SDS011;22846;42.654;23.314;2022-08-11T08:05:14;13.57;;;9.02;;
31336;SDS011;22846;42.654;23.314;2022-08-11T08:08:00;19.83;;;8.60;;
31336;SDS011;22846;42.654;23.314;2022-08-11T08:10:45;12.13;;;7.95;;
31336;SDS011;22846;42.654;23.314;2022-08-11T08:13:30;16.05;;;9.70;;
31336;SDS011;22846;42.654;23.314;2022-08-11T08:16:15;16.80;;;11.13;;
31336;SDS011;22846;42.654;23.314;2022-08-11T08:18:59;17.90;;;14.77;;
31336;SDS011;22846;42.654;23.314;2022-08-11T08:21:25;20.17;;;14.63;;
31336;SDS011;22846;42.654;23.314;2022-08-11T08:23:51;21.48;;;15.05;;
31336;SDS011;22846;42.654;23.314;2022-08-11T08:26:16;18.95;;;16.88;;
31336;SDS011;22846;42.654;23.314;2022-08-11T08:29:02;21.40;;;19.05;;
31336;SDS011;22846;42.654;23.314;2022-08-11T08:31:51;22.70;;;19.05;;
31336;SDS011;22846;42.654;23.314;2022-08-11T08:34:17;22.92;;;19.90;;
31336;SDS011;22846;42.654;23.314;2022-08-11T08:36:45;21.88;;;19.52;;
31336;SDS011;22846;42.654;23.314;2022-08-11T08:39:12;23.25;;;17.80;;
31336;SDS011;22846;42.654;23.314;2022-08-11T08:41:38;20.95;;;17.02;;
31336;SDS011;22846;42.654;23.314;2022-08-11T08:44:07;22.90;;;16.10;;
31336;SDS011;22846;42.654;23.314;2022-08-11T08:46:35;18.10;;;14.98;;
31336;SDS011;22846;42.654;23.314;2022-08-11T08:49:05;20.13;;;15.07;;
31336;SDS011;22846;42.654;23.314;2022-08-11T08:51:35;14.70;;;12.82;;
31336;SDS011;22846;42.654;23.314;2022-08-11T08:54:06;15.73;;;13.95;;
31336;SDS011;22846;42.654;23.314;2022-08-11T08:56:33;17.30;;;13.85;;
31336;SDS011;22846;42.654;23.314;2022-08-11T08:59:02;19.20;;;12.57;;
31336;SDS011;22846;42.654;23.314;2022-08-11T09:01:31;15.45;;;12.15;;
31336;SDS011;22846;42.654;23.314;2022-08-11T09:06:31;14.68;;;11.75;;
31336;SDS011;22846;42.654;23.314;2022-08-11T09:08:57;14.23;;;11.68;;
31336;SDS011;22846;42.654;23.314;2022-08-11T09:11:23;12.23;;;10.20;;
31336;SDS011;22846;42.654;23.314;2022-08-11T09:14:08;11.40;;;9.70;;
31336;SDS011;22846;42.654;23.314;2022-08-11T09:16:34;12.40;;;9.52;;
31336;SDS011;22846;42.654;23.314;2022-08-11T09:19:01;13.38;;;9.82;;
31336;SDS011;22846;42.654;23.314;2022-08-11T09:21:27;14.32;;;11.20;;
31336;SDS011;22846;42.654;23.314;2022-08-11T09:23:53;12.20;;;9.27;;
31336;SDS011;22846;42.654;23.314;2022-08-11T09:26:38;15.90;;;8.90;;
31336;SDS011;22846;42.654;23.314;2022-08-11T09:29:23;12.38;;;8.75;;
31336;SDS011;22846;42.654;23.314;2022-08-11T09:31:52;10.93;;;8.20;;
31336;SDS011;22846;42.654;23.314;2022-08-11T09:34:18;11.50;;;8.85;;
31336;SDS011;22846;42.654;23.314;2022-08-11T09:36:44;11.20;;;7.95;;
31336;SDS011;22846;42.654;23.314;2022-08-11T09:39:29;9.60;;;7.55;;
31336;SDS011;22846;42.654;23.314;2022-08-11T09:42:14;9.05;;;7.57;;
31336;SDS011;22846;42.654;23.314;2022-08-11T09:44:41;9.73;;;7.45;;
31336;SDS011;22846;42.654;23.314;2022-08-11T09:47:24;8.77;;;7.43;;
31336;SDS011;22846;42.654;23.314;2022-08-11T09:49:54;8.77;;;6.95;;
31336;SDS011;22846;42.654;23.314;2022-08-11T09:52:23;8.52;;;7.32;;
31336;SDS011;22846;42.654;23.314;2022-08-11T09:54:50;9.07;;;7.53;;
31336;SDS011;22846;42.654;23.314;2022-08-11T09:57:20;8.98;;;7.25;;
31336;SDS011;22846;42.654;23.314;2022-08-11T10:00:09;8.43;;;7.40;;
31336;SDS011;22846;42.654;23.314;2022-08-11T10:02:39;7.30;;;6.43;;
31336;SDS011;22846;42.654;23.314;2022-08-11T10:05:07;7.85;;;6.07;;
31336;SDS011;22846;42.654;23.314;2022-08-11T10:07:54;8.57;;;6.20;;
31336;SDS011;22846;42.654;23.314;2022-08-11T10:10:21;6.95;;;5.40;;
31336;SDS011;22846;42.654;23.314;2022-08-11T10:12:55;6.43;;;5.72;;
31336;SDS011;22846;42.654;23.314;2022-08-11T10:15:26;7.05;;;5.28;;
31336;SDS011;22846;42.654;23.314;2022-08-11T10:17:59;7.05;;;5.65;;
31336;SDS011;22846;42.654;23.314;2022-08-11T10:20:48;6.75;;;5.60;;
31336;SDS011;22846;42.654;23.314;2022-08-11T10:23:15;7.20;;;5.60;;
31336;SDS011;22846;42.654;23.314;2022-08-11T10:26:01;9.93;;;5.53;;
31336;SDS011;22846;42.654;23.314;2022-08-11T10:28:46;8.48;;;5.47;;
31336;SDS011;22846;42.654;23.314;2022-08-11T10:31:12;6.25;;;5.15;;
31336;SDS011;22846;42.654;23.314;2022-08-11T10:33:57;6.43;;;5.05;;
31336;SDS011;22846;42.654;23.314;2022-08-11T10:36:27;6.40;;;5.45;;
31336;SDS011;22846;42.654;23.314;2022-08-11T10:38:55;7.70;;;4.82;;
31336;SDS011;22846;42.654;23.314;2022-08-11T10:41:22;11.55;;;5.28;;
31336;SDS011;22846;42.654;23.314;2022-08-11T10:44:08;14.88;;;5.15;;
31336;SDS011;22846;42.654;23.314;2022-08-11T10:46:34;5.63;;;4.80;;
31336;SDS011;22846;42.654;23.314;2022-08-11T10:49:20;5.80;;;4.80;;
31336;SDS011;22846;42.654;23.314;2022-08-11T10:51:47;5.40;;;4.72;;
31336;SDS011;22846;42.654;23.314;2022-08-11T10:54:35;10.55;;;4.97;;
31336;SDS011;22846;42.654;23.314;2022-08-11T10:57:22;6.10;;;4.40;;
31336;SDS011;22846;42.654;23.314;2022-08-11T11:00:07;5.55;;;4.63;;
31336;SDS011;22846;42.654;23.314;2022-08-11T11:02:38;5.55;;;4.43;;
31336;SDS011;22846;42.654;23.314;2022-08-11T11:08:12;6.25;;;4.45;;
31336;SDS011;22846;42.654;23.314;2022-08-11T11:10:58;5.88;;;4.57;;
31336;SDS011;22846;42.654;23.314;2022-08-11T11:13:29;8.25;;;4.07;;
31336;SDS011;22846;42.654;23.314;2022-08-11T11:16:17;6.00;;;4.70;;
31336;SDS011;22846;42.654;23.314;2022-08-11T11:19:02;14.45;;;4.28;;
31336;SDS011;22846;42.654;23.314;2022-08-11T11:21:32;6.72;;;4.25;;
31336;SDS011;22846;42.654;23.314;2022-08-11T11:32:17;4.55;;;3.75;;
31336;SDS011;22846;42.654;23.314;2022-08-11T11:37:26;6.28;;;3.88;;
31336;SDS011;22846;42.654;23.314;2022-08-11T11:39:56;6.10;;;4.13;;
31336;SDS011;22846;42.654;23.314;2022-08-11T11:42:23;5.20;;;3.75;;
31336;SDS011;22846;42.654;23.314;2022-08-11T11:44:50;4.10;;;3.70;;
31336;SDS011;22846;42.654;23.314;2022-08-11T11:47:15;6.78;;;3.92;;
31336;SDS011;22846;42.654;23.314;2022-08-11T11:49:47;4.13;;;3.25;;
31336;SDS011;22846;42.654;23.314;2022-08-11T11:52:17;3.83;;;3.50;;
31336;SDS011;22846;42.654;23.314;2022-08-11T11:54:45;7.07;;;3.90;;
31336;SDS011;22846;42.654;23.314;2022-08-11T11:57:15;5.03;;;3.75;;
31336;SDS011;22846;42.654;23.314;2022-08-11T12:00:02;7.05;;;3.83;;
31336;SDS011;22846;42.654;23.314;2022-08-11T12:02:48;4.85;;;3.95;;
31336;SDS011;22846;42.654;23.314;2022-08-11T12:05:15;8.15;;;3.38;;
31336;SDS011;22846;42.654;23.314;2022-08-11T12:07:42;5.40;;;3.78;;
31336;SDS011;22846;42.654;23.314;2022-08-11T12:10:26;5.43;;;3.80;;
31336;SDS011;22846;42.654;23.314;2022-08-11T12:12:52;5.18;;;3.38;;
31336;SDS011;22846;42.654;23.314;2022-08-11T12:15:37;4.78;;;3.28;;
31336;SDS011;22846;42.654;23.314;2022-08-11T12:18:02;4.75;;;3.45;;
31336;SDS011;22846;42.654;23.314;2022-08-11T12:20:29;4.05;;;3.10;;
31336;SDS011;22846;42.654;23.314;2022-08-11T12:22:56;3.72;;;3.13;;
31336;SDS011;22846;42.654;23.314;2022-08-11T12:29:03;3.47;;;3.17;;
31336;SDS011;22846;42.654;23.314;2022-08-11T12:31:31;3.28;;;2.95;;
31336;SDS011;22846;42.654;23.314;2022-08-11T12:34:04;5.45;;;3.50;;
31336;SDS011;22846;42.654;23.314;2022-08-11T12:36:34;3.22;;;2.92;;
31336;SDS011;22846;42.654;23.314;2022-08-11T12:39:05;3.40;;;2.92;;
31336;SDS011;22846;42.654;23.314;2022-08-11T12:41:33;4.78;;;3.10;;
31336;SDS011;22846;42.654;23.314;2022-08-11T12:44:19;4.38;;;2.83;;
31336;SDS011;22846;42.654;23.314;2022-08-11T12:47:09;4.00;;;3.10;;
31336;SDS011;22846;42.654;23.314;2022-08-11T12:49:44;4.03;;;3.40;;
31336;SDS011;22846;42.654;23.314;2022-08-11T12:55:11;3.55;;;2.85;;
31336;SDS011;22846;42.654;23.314;2022-08-11T12:57:59;3.05;;;2.67;;
31336;SDS011;22846;42.654;23.314;2022-08-11T13:00:41;3.20;;;2.70;;
31336;SDS011;22846;42.654;23.314;2022-08-11T13:03:26;2.70;;;2.50;;
31336;SDS011;22846;42.654;23.314;2022-08-11T13:06:10;3.78;;;3.17;;
31336;SDS011;22846;42.654;23.314;2022-08-11T13:08:37;3.22;;;2.85;;
31336;SDS011;22846;42.654;23.314;2022-08-11T13:11:04;2.75;;;2.55;;
31336;SDS011;22846;42.654;23.314;2022-08-11T13:13:50;4.00;;;3.15;;
31336;SDS011;22846;42.654;23.314;2022-08-11T13:16:20;3.25;;;2.95;;
31336;SDS011;22846;42.654;23.314;2022-08-11T13:18:47;4.03;;;2.92;;
31336;SDS011;22846;42.654;23.314;2022-08-11T13:21:14;3.13;;;2.70;;
31336;SDS011;22846;42.654;23.314;2022-08-11T13:23:41;2.80;;;2.50;;
31336;SDS011;22846;42.654;23.314;2022-08-11T13:26:07;3.25;;;2.60;;
31336;SDS011;22846;42.654;23.314;2022-08-11T13:28:34;3.30;;;2.80;;
31336;SDS011;22846;42.654;23.314;2022-08-11T13:31:01;2.97;;;2.40;;
31336;SDS011;22846;42.654;23.314;2022-08-11T13:33:44;3.10;;;2.55;;
31336;SDS011;22846;42.654;23.314;2022-08-11T13:36:11;3.30;;;2.60;;
31336;SDS011;22846;42.654;23.314;2022-08-11T13:38:40;2.83;;;2.53;;
31336;SDS011;22846;42.654;23.314;2022-08-11T13:41:07;4.63;;;2.97;;
31336;SDS011;22846;42.654;23.314;2022-08-11T13:43:54;4.45;;;2.90;;
31336;SDS011;22846;42.654;23.314;2022-08-11T13:46:20;5.25;;;2.83;;
31336;SDS011;22846;42.654;23.314;2022-08-11T13:48:48;3.55;;;2.92;;
31336;SDS011;22846;42.654;23.314;2022-08-11T13:51:16;4.88;;;2.53;;
31336;SDS011;22846;42.654;23.314;2022-08-11T13:56:31;2.65;;;2.25;;
31336;SDS011;22846;42.654;23.314;2022-08-11T13:58:58;4.55;;;2.70;;
31336;SDS011;22846;42.654;23.314;2022-08-11T14:01:27;3.33;;;2.30;;
31336;SDS011;22846;42.654;23.314;2022-08-11T14:03:57;3.50;;;2.67;;
31336;SDS011;22846;42.654;23.314;2022-08-11T14:06:27;4.10;;;2.57;;
31336;SDS011;22846;42.654;23.314;2022-08-11T14:08:53;5.80;;;2.47;;
31336;SDS011;22846;42.654;23.314;2022-08-11T14:11:19;13.27;;;10.07;;
31336;SDS011;22846;42.654;23.314;2022-08-11T14:14:03;10.15;;;7.78;;
31336;SDS011;22846;42.654;23.314;2022-08-11T14:16:34;11.32;;;7.10;;
31336;SDS011;22846;42.654;23.314;2022-08-11T14:19:05;5.97;;;5.38;;
31336;SDS011;22846;42.654;23.314;2022-08-11T14:21:36;7.25;;;5.88;;
31336;SDS011;22846;42.654;23.314;2022-08-11T14:24:23;6.93;;;5.45;;
31336;SDS011;22846;42.654;23.314;2022-08-11T14:26:50;7.05;;;5.30;;
31336;SDS011;22846;42.654;23.314;2022-08-11T14:29:18;6.63;;;4.35;;
31336;SDS011;22846;42.654;23.314;2022-08-11T14:31:49;6.57;;;4.20;;
31336;SDS011;22846;42.654;23.314;2022-08-11T14:34:18;5.63;;;3.75;;
31336;SDS011;22846;42.654;23.314;2022-08-11T14:36:52;6.90;;;3.85;;
31336;SDS011;22846;42.654;23.314;2022-08-11T14:39:22;3.80;;;3.45;;
31336;SDS011;22846;42.654;23.314;2022-08-11T14:41:57;8.45;;;3.53;;
31336;SDS011;22846;42.654;23.314;2022-08-11T14:44:47;5.25;;;3.42;;
31336;SDS011;22846;42.654;23.314;2022-08-11T14:47:35;5.47;;;3.70;;
31336;SDS011;22846;42.654;23.314;2022-08-11T14:50:02;4.40;;;3.63;;
31336;SDS011;22846;42.654;23.314;2022-08-11T14:52:32;7.20;;;3.90;;
31336;SDS011;22846;42.654;23.314;2022-08-11T14:54:59;5.10;;;3.42;;
31336;SDS011;22846;42.654;23.314;2022-08-11T14:57:44;5.63;;;3.50;;
31336;SDS011;22846;42.654;23.314;2022-08-11T15:00:12;6.13;;;3.35;;
31336;SDS011;22846;42.654;23.314;2022-08-11T15:02:42;4.30;;;3.10;;
31336;SDS011;22846;42.654;23.314;2022-08-11T15:05:28;7.00;;;3.25;;
31336;SDS011;22846;42.654;23.314;2022-08-11T15:07:55;5.40;;;3.00;;
31336;SDS011;22846;42.654;23.314;2022-08-11T15:10:22;2.97;;;2.67;;
31336;SDS011;22846;42.654;23.314;2022-08-11T15:12:49;5.40;;;3.10;;
31336;SDS011;22846;42.654;23.314;2022-08-11T15:15:15;4.57;;;2.70;;
31336;SDS011;22846;42.654;23.314;2022-08-11T15:18:06;5.75;;;3.00;;
31336;SDS011;22846;42.654;23.314;2022-08-11T15:20:37;6.68;;;3.53;;
31336;SDS011;22846;42.654;23.314;2022-08-11T15:23:21;5.43;;;2.60;;
31336;SDS011;22846;42.654;23.314;2022-08-11T15:28:44;4.90;;;2.75;;
31336;SDS011;22846;42.654;23.314;2022-08-11T15:31:30;3.75;;;2.85;;
31336;SDS011;22846;42.654;23.314;2022-08-11T15:34:16;6.40;;;3.20;;
31336;SDS011;22846;42.654;23.314;2022-08-11T15:37:08;4.75;;;2.85;;
31336;SDS011;22846;42.654;23.314;2022-08-11T15:45:51;5.40;;;2.80;;
31336;SDS011;22846;42.654;23.314;2022-08-11T15:48:21;4.43;;;3.05;;
31336;SDS011;22846;42.654;23.314;2022-08-11T15:50:55;3.30;;;2.63;;
31336;SDS011;22846;42.654;23.314;2022-08-11T15:53:34;4.57;;;2.90;;
31336;SDS011;22846;42.654;23.314;2022-08-11T15:56:05;4.88;;;2.63;;
31336;SDS011;22846;42.654;23.314;2022-08-11T15:58:33;4.75;;;2.67;;
31336;SDS011;22846;42.654;23.314;2022-08-11T16:01:24;5.35;;;2.65;;
31336;SDS011;22846;42.654;23.314;2022-08-11T16:04:10;3.83;;;2.80;;
31336;SDS011;22846;42.654;23.314;2022-08-11T16:09:32;7.63;;;2.88;;
31336;SDS011;22846;42.654;23.314;2022-08-11T16:12:02;5.22;;;2.90;;
31336;SDS011;22846;42.654;23.314;2022-08-11T16:14:32;4.95;;;2.60;;
31336;SDS011;22846;42.654;23.314;2022-08-11T16:17:19;2.45;;;2.17;;
31336;SDS011;22846;42.654;23.314;2022-08-11T16:19:48;5.78;;;2.40;;
31336;SDS011;22846;42.654;23.314;2022-08-11T16:22:18;6.38;;;2.60;;
31336;SDS011;22846;42.654;23.314;2022-08-11T16:24:58;4.78;;;2.42;;
31336;SDS011;22846;42.654;23.314;2022-08-11T16:27:25;3.40;;;2.45;;
31336;SDS011;22846;42.654;23.314;2022-08-11T16:29:51;5.68;;;2.83;;
31336;SDS011;22846;42.654;23.314;2022-08-11T16:32:20;3.58;;;2.50;;
31336;SDS011;22846;42.654;23.314;2022-08-11T16:34:58;6.72;;;2.80;;
31336;SDS011;22846;42.654;23.314;2022-08-11T16:37:44;2.90;;;2.45;;
31336;SDS011;22846;42.654;23.314;2022-08-11T16:40:29;2.85;;;2.20;;
31336;SDS011;22846;42.654;23.314;2022-08-11T16:42:58;4.85;;;2.40;;
31336;SDS011;22846;42.654;23.314;2022-08-11T16:45:43;5.50;;;2.20;;
31336;SDS011;22846;42.654;23.314;2022-08-11T16:48:30;2.50;;;2.03;;
31336;SDS011;22846;42.654;23.314;2022-08-11T16:50:58;4.50;;;2.53;;
31336;SDS011;22846;42.654;23.314;2022-08-11T16:53:25;5.70;;;2.17;;
31336;SDS011;22846;42.654;23.314;2022-08-11T16:55:55;2.78;;;2.22;;
31336;SDS011;22846;42.654;23.314;2022-08-11T16:58:23;4.70;;;2.55;;
31336;SDS011;22846;42.654;23.314;2022-08-11T17:01:09;3.83;;;2.15;;
31336;SDS011;22846;42.654;23.314;2022-08-11T17:03:38;5.13;;;2.33;;
31336;SDS011;22846;42.654;23.314;2022-08-11T17:06:28;7.18;;;2.70;;
31336;SDS011;22846;42.654;23.314;2022-08-11T17:09:24;5.60;;;3.00;;
31336;SDS011;22846;42.654;23.314;2022-08-11T17:12:09;4.35;;;2.80;;
31336;SDS011;22846;42.654;23.314;2022-08-11T17:14:56;4.00;;;2.95;;
31336;SDS011;22846;42.654;23.314;2022-08-11T17:17:32;6.97;;;2.67;;
31336;SDS011;22846;42.654;23.314;2022-08-11T17:20:00;7.00;;;2.83;;
31336;SDS011;22846;42.654;23.314;2022-08-11T17:22:31;5.47;;;3.33;;
31336;SDS011;22846;42.654;23.314;2022-08-11T17:25:18;3.60;;;3.20;;
31336;SDS011;22846;42.654;23.314;2022-08-11T17:27:45;3.08;;;2.70;;
31336;SDS011;22846;42.654;23.314;2022-08-11T17:30:12;3.67;;;2.67;;
31336;SDS011;22846;42.654;23.314;2022-08-11T17:32:40;4.97;;;2.80;;
31336;SDS011;22846;42.654;23.314;2022-08-11T17:35:29;3.97;;;2.35;;
31336;SDS011;22846;42.654;23.314;2022-08-11T17:40:39;16.95;;;3.25;;
31336;SDS011;22846;42.654;23.314;2022-08-11T17:43:27;3.60;;;2.42;;
31336;SDS011;22846;42.654;23.314;2022-08-11T17:46:12;7.38;;;4.50;;
31336;SDS011;22846;42.654;23.314;2022-08-11T17:48:58;11.35;;;8.63;;
31336;SDS011;22846;42.654;23.314;2022-08-11T17:51:24;7.15;;;5.00;;
31336;SDS011;22846;42.654;23.314;2022-08-11T17:54:09;9.73;;;6.57;;
31336;SDS011;22846;42.654;23.314;2022-08-11T17:56:54;12.00;;;8.45;;
31336;SDS011;22846;42.654;23.314;2022-08-11T17:59:40;10.43;;;6.80;;
31336;SDS011;22846;42.654;23.314;2022-08-11T18:02:24;9.68;;;6.60;;
31336;SDS011;22846;42.654;23.314;2022-08-11T18:05:11;8.32;;;5.80;;
31336;SDS011;22846;42.654;23.314;2022-08-11T18:07:39;9.20;;;6.10;;
31336;SDS011;22846;42.654;23.314;2022-08-11T18:10:24;8.63;;;5.35;;
31336;SDS011;22846;42.654;23.314;2022-08-11T18:13:09;9.80;;;7.45;;
31336;SDS011;22846;42.654;23.314;2022-08-11T18:15:54;9.10;;;5.57;;
31336;SDS011;22846;42.654;23.314;2022-08-11T18:18:39;7.35;;;5.22;;
31336;SDS011;22846;42.654;23.314;2022-08-11T18:21:22;8.52;;;5.20;;
31336;SDS011;22846;42.654;23.314;2022-08-11T18:24:11;7.85;;;4.10;;
31336;SDS011;22846;42.654;23.314;2022-08-11T18:26:58;4.78;;;3.85;;
31336;SDS011;22846;42.654;23.314;2022-08-11T18:29:44;5.93;;;4.20;;
31336;SDS011;22846;42.654;23.314;2022-08-11T18:32:31;5.65;;;3.72;;
31336;SDS011;22846;42.654;23.314;2022-08-11T18:35:17;4.75;;;3.83;;
31336;SDS011;22846;42.654;23.314;2022-08-11T18:38:02;7.22;;;3.83;;
31336;SDS011;22846;42.654;23.314;2022-08-11T18:40:52;6.28;;;3.95;;
31336;SDS011;22846;42.654;23.314;2022-08-11T18:43:38;4.38;;;3.95;;
31336;SDS011;22846;42.654;23.314;2022-08-11T18:46:26;4.55;;;3.63;;
31336;SDS011;22846;42.654;23.314;2022-08-11T18:49:17;7.03;;;4.18;;
31336;SDS011;22846;42.654;23.314;2022-08-11T18:52:04;6.30;;;4.10;;
31336;SDS011;22846;42.654;23.314;2022-08-11T18:54:51;7.43;;;4.03;;
31336;SDS011;22846;42.654;23.314;2022-08-11T18:57:39;4.47;;;3.95;;
31336;SDS011;22846;42.654;23.314;2022-08-11T19:00:24;8.15;;;3.85;;
31336;SDS011;22846;42.654;23.314;2022-08-11T19:03:11;8.85;;;4.07;;
31336;SDS011;22846;42.654;23.314;2022-08-11T19:05:57;4.95;;;3.60;;
31336;SDS011;22846;42.654;23.314;2022-08-11T19:08:47;4.80;;;3.80;;
31336;SDS011;22846;42.654;23.314;2022-08-11T19:11:39;11.38;;;4.43;;
31336;SDS011;22846;42.654;23.314;2022-08-11T19:14:24;6.57;;;3.92;;
31336;SDS011;22846;42.654;23.314;2022-08-11T19:17:10;9.27;;;3.80;;
31336;SDS011;22846;42.654;23.314;2022-08-11T19:19:57;7.32;;;3.92;;
31336;SDS011;22846;42.654;23.314;2022-08-11T19:22:43;6.47;;;4.10;;
31336;SDS011;22846;42.654;23.314;2022-08-11T19:25:28;10.85;;;4.68;;